Aérodrome :
LOGIN :

S'inscrire | Disclaimer

   EN    FR    IT 

 










Légende :    VFR   VFR Marginal   IFR   IFR Intensif   IFR Très Intensif
Visi : 
Plafond : 
>= 8 km
>= 3000ft
5 à 8 km
1000 à 3000 ft
1500m à 5 km
500 à 1000 ft
800 à 1500m
200 à 500 ft
< 800m
< 200 ft
Symboles :   Orages  Brouillard  Fortes neiges  Fortes précipitations  Vent > 20 kt
SIGMETs :   Divers  Orages  Givrage  Turbulence  Onde Orograph.  Cendres Volcan.







- Altitude de l'aérodrome : 102 ft
- Code IATA : EXT
- Voir les cartes d'approche


EGTE - Exeter

DERNIER METAR :
  • 262050Z 20005KT 9999 FEW030 09/05 Q1015

METARs EXPIRÉS :
  • 262020Z 22005KT 9999 SCT030 09/05 Q1015
  • 261950Z 21007KT 9999 FEW025 SCT030 10/05 Q1015
  • 261920Z 23005KT 210V280 9999 FEW025 SCT030 10/05 Q1015
  • 261850Z 24008KT 9999 FEW025 SCT035 11/04 Q1015
  • 261820Z 25006KT 220V300 9999 FEW025 SCT035 11/05 Q1015

TAF TAF EGTE
Valide du 26 à 21h jusqu'au 27 à 03h UTC


262000Z 2621/2703 19005KT 9999 FEW015 SCT025
TEMPO 2700/2703 7000 RA
PROB30
TEMPO 2700/2703 BKN012
Pas de NOTAMs connus pour ce terrain.



MET'MAP, la Météo Aéronautique d'un coup d'oeil ! - Copyright ORBIFLY Décembre 2007 - Disclaimer

ORBIFLY MET'MAP TEAM :

Programmation & Développement : Alexandra Zaïnal
Conception & Développement : Baudouin d'Aumeries
Co-Programmation & Développement : Marc-Olivier Méhu
Soutien technique & logistique : Manuel Goepfert

Contact : metmap@orbifly.com




SOURCES & CREDITS :

   NOAA